2AR4 weather

CLOSED Jaynes Field
Trumann, Arkansas, United States

Public forecast

Using degrees Fahrenheit for public forecast. Weather courtesy of forecast.io.

Closest aviation weather report (METAR) to Jaynes Field

Report is more than 6 hours old.

Closest report is Jonesboro Municipal Airport, 11.3 nm (20.9 km) NNW. Retrieved 2020/03/28 23:53 UTC (2 months ago):

KJBR 282353Z AUTO RMK AO2 LTG DSNT E-S RAEMM SLPNO P0005 60018 10239 20217 PWINO FZRANO

Closest aviation forecast (TAF) to Jaynes Field

Closest forecast is Jonesboro Municipal Airport, 11.3 nm (20.9 km) NNW. Retrieved 2020/06/02 06:22 UTC (5 hours ago):

TAF KJBR 020520Z 0206/0306 00000KT P6SM FEW120 FEW250 FM021700 23005KT P6SM FEW100 FEW250 FM030000 VRB03KT P6SM FEW250 AMD NOT SKED